Time;durP1;ratioP1;P1;durP2;ratioP2;P2;SDS_P1;SDS_P2;PMS_P1;PMS_P2;Temp;Humidity;BMP_temperature;BMP_pressure;BME280_temperature;BME280_humidity;BME280_pressure;Samples;Min_cycle;Max_cycle;Signal;HPM_P1;HPM_P2
2022/10/31 00:00:19;;;;;;;25.73;10.90;;;;;;;12.08;59.06;101931.19;5004385;28;20061;-70
2022/10/31 00:02:44;;;;;;;35.03;12.45;;;;;;;11.93;59.54;101936.88;5002263;28;20120;-70
2022/10/31 00:05:09;;;;;;;28.88;11.85;;;;;;;12.00;59.71;101932.31;5005058;28;20084;-71
2022/10/31 00:07:35;;;;;;;36.38;13.05;;;;;;;11.93;59.61;101931.63;5007498;28;20054;-72
2022/10/31 00:10:01;;;;;;;22.05;11.95;;;;;;;11.98;59.09;101939.38;5022513;28;20040;-72
2022/10/31 00:12:26;;;;;;;27.77;12.40;;;;;;;11.90;59.50;101936.97;5023006;28;20465;-72
2022/10/31 00:14:52;;;;;;;32.40;12.70;;;;;;;11.86;59.25;101940.56;5004348;28;20107;-72
2022/10/31 00:17:17;;;;;;;31.63;13.18;;;;;;;11.78;59.44;101935.56;5005417;28;20044;-72
2022/10/31 00:19:43;;;;;;;33.50;12.68;;;;;;;11.76;59.29;101929.47;5020670;28;20398;-72
2022/10/31 00:22:08;;;;;;;30.67;12.27;;;;;;;11.68;59.32;101936.69;5023819;28;20057;-72
2022/10/31 00:24:34;;;;;;;34.97;12.18;;;;;;;11.62;59.59;101944.69;5021307;28;20045;-72
2022/10/31 00:26:59;;;;;;;24.13;11.48;;;;;;;11.65;59.10;101948.09;5010778;28;20136;-72
2022/10/31 00:29:26;;;;;;;25.65;12.40;;;;;;;11.60;59.61;101949.16;4995676;28;20041;-72
2022/10/31 00:31:52;;;;;;;28.30;12.75;;;;;;;11.56;59.27;101953.59;5004062;28;20040;-72
2022/10/31 00:34:18;;;;;;;32.72;13.02;;;;;;;11.51;59.53;101950.25;5005152;28;20386;-73
2022/10/31 00:36:43;;;;;;;31.58;14.15;;;;;;;11.48;59.52;101952.94;4993528;28;20417;-73
2022/10/31 00:39:12;;;;;;;31.95;12.63;;;;;;;11.44;59.20;101959.16;5025340;28;20030;-72
2022/10/31 00:41:38;;;;;;;23.33;12.45;;;;;;;11.39;58.86;101961.88;5007455;28;20025;-73
2022/10/31 00:44:09;;;;;;;29.87;10.90;;;;;;;11.29;58.91;101965.66;5015091;28;20451;-75
2022/10/31 00:46:34;;;;;;;20.90;11.10;;;;;;;11.16;59.21;101969.47;5008163;28;20163;-71
2022/10/31 00:49:00;;;;;;;35.35;12.75;;;;;;;11.20;58.92;101965.91;5007531;28;20706;-71
2022/10/31 00:51:25;;;;;;;22.42;11.45;;;;;;;11.13;58.85;101969.53;5023249;28;20640;-71
2022/10/31 00:53:51;;;;;;;20.85;10.10;;;;;;;11.04;58.67;101968.88;5005699;28;20147;-71
2022/10/31 00:56:16;;;;;;;23.05;11.10;;;;;;;10.98;58.82;101970.78;5012173;28;20086;-72
2022/10/31 00:58:42;;;;;;;23.30;9.48;;;;;;;11.07;58.00;101970.56;5022883;28;20095;-72
2022/10/31 01:01:08;;;;;;;15.55;8.40;;;;;;;11.03;58.10;101975.00;5012526;28;20176;-71
2022/10/31 01:03:34;;;;;;;28.15;9.18;;;;;;;10.98;57.95;101966.41;5005609;28;20048;-72
2022/10/31 01:06:06;;;;;;;22.38;8.73;;;;;;;10.80;57.71;101967.69;5022982;28;20033;-73
2022/10/31 01:08:33;;;;;;;18.60;9.82;;;;;;;10.67;58.02;101963.63;4999021;28;20421;-72
2022/10/31 01:11:06;;;;;;;20.70;8.93;;;;;;;10.56;58.36;101974.34;5011384;28;20087;-72
2022/10/31 01:13:32;;;;;;;29.52;10.82;;;;;;;10.50;58.77;101977.06;5005252;28;20666;-73
2022/10/31 01:15:58;;;;;;;21.08;10.32;;;;;;;10.45;59.09;101986.78;5024366;28;20098;-72
2022/10/31 01:18:25;;;;;;;19.95;9.32;;;;;;;10.42;59.07;101986.84;5014536;28;20047;-72
2022/10/31 01:21:07;;;;;;;16.40;7.97;;;;;;;10.33;58.62;101985.28;5007661;28;20232;-73
2022/10/31 01:23:34;;;;;;;17.30;8.43;;;;;;;10.29;58.30;101980.19;5022051;28;20550;-73
2022/10/31 01:26:16;;;;;;;17.25;9.20;;;;;;;10.16;58.48;101980.41;5000688;28;20041;-74
2022/10/31 01:28:50;;;;;;;14.60;7.53;;;;;;;10.11;58.83;101978.81;5026085;28;20049;-74
2022/10/31 01:31:17;;;;;;;11.57;6.57;;;;;;;10.11;58.61;101981.41;5009196;28;20468;-73
2022/10/31 01:33:43;;;;;;;14.35;7.38;;;;;;;10.03;58.80;101976.31;5026047;28;20047;-74
2022/10/31 01:36:18;;;;;;;24.40;10.60;;;;;;;10.04;59.12;101975.47;5024344;28;20041;-73
2022/10/31 01:38:44;;;;;;;19.90;9.23;;;;;;;10.05;58.87;101974.56;5022860;28;20871;-73
2022/10/31 01:41:13;;;;;;;20.77;8.35;;;;;;;10.07;59.03;101980.59;5024953;28;20446;-73
2022/10/31 01:43:42;;;;;;;15.80;8.35;;;;;;;10.02;58.50;101987.69;5022768;28;20132;-73
2022/10/31 01:46:08;;;;;;;16.02;8.35;;;;;;;9.95;58.85;101986.94;5041152;28;20655;-72
2022/10/31 01:48:34;;;;;;;19.25;8.40;;;;;;;9.94;58.72;101985.22;4992083;28;20045;-73
2022/10/31 01:50:59;;;;;;;23.20;9.63;;;;;;;9.93;59.41;101982.66;5005033;28;20474;-72
2022/10/31 01:53:25;;;;;;;11.75;7.70;;;;;;;10.00;59.18;101979.00;5005386;28;20509;-72
2022/10/31 01:55:51;;;;;;;14.52;6.95;;;;;;;9.98;59.34;101991.25;5019898;28;20486;-72
2022/10/31 01:58:22;;;;;;;12.05;8.23;;;;;;;10.02;59.02;101987.69;4997804;28;20052;-72
2022/10/31 02:00:51;;;;;;;16.02;9.32;;;;;;;10.07;59.44;101993.66;5025309;28;20116;-71
2022/10/31 02:03:20;;;;;;;20.98;10.05;;;;;;;10.11;59.72;101990.09;5010511;28;20152;-72
2022/10/31 02:05:46;;;;;;;13.75;7.97;;;;;;;10.09;59.10;101993.66;5009894;28;20540;-72
2022/10/31 02:08:30;;;;;;;18.42;9.27;;;;;;;10.14;59.00;101997.00;5011737;28;20047;-72
2022/10/31 02:10:57;;;;;;;11.25;7.05;;;;;;;10.12;58.78;101994.44;5001616;28;20044;-71
2022/10/31 02:13:24;;;;;;;18.80;9.23;;;;;;;10.10;59.01;101988.41;4994384;28;20116;-71
2022/10/31 02:15:53;;;;;;;18.08;8.15;;;;;;;10.10;58.58;102001.47;5021185;28;20029;-71
2022/10/31 02:18:20;;;;;;;13.13;8.80;;;;;;;10.01;58.73;102007.72;5010220;28;20042;-71
2022/10/31 02:21:02;;;;;;;13.40;8.10;;;;;;;9.92;58.98;102007.03;5006135;28;20029;-71
2022/10/31 02:24:05;;;;;;;22.88;10.00;;;;;;;9.77;59.39;102009.00;5004689;28;20053;-71
2022/10/31 02:26:46;;;;;;;15.55;8.88;;;;;;;9.68;59.44;101998.75;4912299;28;20428;-71
2022/10/31 02:29:29;;;;;;;15.75;8.25;;;;;;;9.69;59.11;101999.59;5019699;28;20065;-73
2022/10/31 02:32:17;;;;;;;13.27;7.47;;;;;;;9.61;59.23;102002.38;4994770;28;20115;-72
2022/10/31 02:34:58;;;;;;;17.50;7.32;;;;;;;9.56;58.89;102004.16;4992811;28;20037;-72
2022/10/31 02:37:48;;;;;;;12.63;7.28;;;;;;;9.55;59.21;101999.84;4992268;28;20044;-72
2022/10/31 02:40:21;;;;;;;14.07;7.82;;;;;;;9.51;59.02;101998.19;5022322;28;20030;-72
2022/10/31 02:43:25;;;;;;;14.57;8.10;;;;;;;9.43;59.20;101998.28;5003604;28;20071;-72
2022/10/31 02:46:02;;;;;;;15.13;8.85;;;;;;;9.40;59.61;101994.00;5005190;28;20033;-72
2022/10/31 02:48:36;;;;;;;19.63;9.63;;;;;;;9.40;59.71;102003.56;5022853;28;20052;-73
2022/10/31 02:51:04;;;;;;;16.42;7.38;;;;;;;9.43;59.68;102002.66;4993446;28;20398;-73
2022/10/31 02:53:37;;;;;;;13.15;7.72;;;;;;;9.52;59.42;102006.00;4994902;28;20128;-72
2022/10/31 02:56:14;;;;;;;14.10;7.18;;;;;;;9.53;59.22;102014.69;5000110;28;20050;-71
2022/10/31 02:58:53;;;;;;;14.88;7.28;;;;;;;9.49;59.21;102013.00;4991554;28;20041;-72
2022/10/31 03:01:56;;;;;;;12.35;6.18;;;;;;;9.46;59.12;102013.06;5007270;28;20467;-69
2022/10/31 03:04:45;;;;;;;15.80;6.70;;;;;;;9.45;59.02;102016.53;4990857;28;20692;-69
2022/10/31 03:07:37;;;;;;;11.50;7.03;;;;;;;9.39;59.09;102013.16;5006598;28;20032;-72
2022/10/31 03:10:17;;;;;;;16.42;7.00;;;;;;;9.37;58.96;102014.94;5005012;28;20061;-73
2022/10/31 03:12:57;;;;;;;16.88;7.28;;;;;;;9.34;59.00;102021.94;5005497;28;20046;-72
2022/10/31 03:15:32;;;;;;;13.75;7.57;;;;;;;9.29;58.96;102016.78;5023962;28;20040;-74
2022/10/31 03:18:09;;;;;;;12.38;7.38;;;;;;;9.25;59.08;102011.66;5007107;28;20033;-72
2022/10/31 03:20:41;;;;;;;13.23;7.82;;;;;;;9.21;58.86;102008.25;5010705;28;20044;-73
2022/10/31 03:23:12;;;;;;;13.00;5.95;;;;;;;9.18;58.44;102016.09;5023990;28;20711;-72
2022/10/31 03:25:39;;;;;;;10.48;6.57;;;;;;;9.11;58.51;102017.09;5022432;28;20576;-71
2022/10/31 03:28:09;;;;;;;15.88;8.23;;;;;;;9.03;59.13;102016.34;5021734;28;20042;-72
2022/10/31 03:30:38;;;;;;;15.70;6.50;;;;;;;9.03;58.54;102016.34;5006310;28;20039;-70
2022/10/31 03:33:10;;;;;;;20.92;7.75;;;;;;;8.93;58.75;102008.66;5020927;28;20054;-72
2022/10/31 03:35:44;;;;;;;15.63;8.02;;;;;;;8.86;59.34;102012.25;5001865;28;20032;-70
2022/10/31 03:38:10;;;;;;;13.57;6.82;;;;;;;8.90;59.12;102018.31;5014434;28;20529;-73
2022/10/31 03:40:39;;;;;;;13.88;7.35;;;;;;;8.90;59.07;102016.53;5002781;28;20022;-72
2022/10/31 03:43:10;;;;;;;14.88;7.30;;;;;;;8.85;58.79;102010.53;4992238;28;20124;-74
2022/10/31 03:45:41;;;;;;;13.50;7.57;;;;;;;8.80;58.86;102021.91;5023081;28;20116;-72
2022/10/31 03:48:07;;;;;;;11.35;6.07;;;;;;;8.75;59.00;102027.19;5029010;28;20037;-71
2022/10/31 03:50:47;;;;;;;9.93;5.90;;;;;;;8.69;59.19;102029.84;5021140;28;20087;-72
2022/10/31 03:53:20;;;;;;;13.88;7.38;;;;;;;8.70;59.79;102031.59;5039542;28;20080;-71
2022/10/31 03:55:59;;;;;;;11.40;6.70;;;;;;;8.72;59.82;102035.06;5006258;28;20033;-75
2022/10/31 03:58:32;;;;;;;15.57;7.03;;;;;;;8.69;59.84;102046.34;5009205;28;20045;-75
2022/10/31 04:01:01;;;;;;;7.45;6.18;;;;;;;8.80;59.59;102042.75;5031823;28;20051;-74
2022/10/31 04:03:32;;;;;;;9.45;6.13;;;;;;;8.82;59.63;102039.25;5038793;28;20714;-74
2022/10/31 04:06:04;;;;;;;7.40;5.25;;;;;;;8.82;59.74;102036.66;5024662;28;20027;-74
2022/10/31 04:08:33;;;;;;;7.90;5.25;;;;;;;8.89;59.81;102033.06;5022776;28;20049;-74
2022/10/31 04:11:02;;;;;;;7.53;5.22;;;;;;;8.92;59.29;102034.78;5011256;28;20157;-75
2022/10/31 04:13:31;;;;;;;9.82;5.20;;;;;;;8.95;59.25;102032.97;5017959;28;20090;-71
2022/10/31 04:16:03;;;;;;;8.38;5.90;;;;;;;8.98;59.23;102030.34;5037850;28;20029;-71
2022/10/31 04:18:28;;;;;;;9.77;6.63;;;;;;;8.96;59.52;102044.25;5024622;28;20079;-72
2022/10/31 04:21:06;;;;;;;12.23;7.20;;;;;;;8.93;59.15;102034.75;5035391;28;20052;-72
2022/10/31 04:23:32;;;;;;;38.65;8.18;;;;;;;8.94;59.56;102033.88;5024063;28;20498;-71
2022/10/31 04:25:59;;;;;;;10.52;7.20;;;;;;;8.95;59.22;102043.41;5026342;28;20056;-72
2022/10/31 04:28:25;;;;;;;11.80;7.82;;;;;;;8.90;59.23;102037.41;5032692;28;20041;-73
2022/10/31 04:30:51;;;;;;;10.77;7.47;;;;;;;8.88;59.57;102035.72;5015449;28;20589;-70
2022/10/31 04:33:17;;;;;;;15.73;8.45;;;;;;;8.84;59.52;102042.69;5025302;28;20252;-73
2022/10/31 04:35:44;;;;;;;10.85;7.22;;;;;;;8.94;59.38;102038.19;5034436;28;20159;-72
2022/10/31 04:38:10;;;;;;;15.77;9.57;;;;;;;8.98;59.13;102037.28;5025667;28;20076;-73
2022/10/31 04:40:37;;;;;;;10.32;6.72;;;;;;;9.00;59.04;102042.47;5013274;28;20028;-72
2022/10/31 04:43:31;;;;;;;12.38;6.47;;;;;;;8.98;58.86;102038.16;5025490;28;20037;-75
2022/10/31 04:45:59;;;;;;;12.35;8.18;;;;;;;8.97;58.78;102036.44;5035037;28;20122;-72
2022/10/31 04:48:25;;;;;;;11.27;6.57;;;;;;;8.96;58.84;102039.94;5016165;28;20130;-75
2022/10/31 04:50:50;;;;;;;10.48;7.47;;;;;;;8.96;59.12;102045.16;5023352;28;20406;-72
2022/10/31 04:53:15;;;;;;;11.80;6.75;;;;;;;8.96;58.80;102055.56;5025226;28;20108;-72
2022/10/31 04:56:01;;;;;;;13.73;7.85;;;;;;;8.92;58.86;102042.59;5037065;28;20041;-72
2022/10/31 04:58:34;;;;;;;12.60;7.07;;;;;;;8.89;59.01;102046.09;5015852;28;20044;-73
2022/10/31 05:01:02;;;;;;;13.95;7.72;;;;;;;8.80;58.84;102042.75;5019373;28;20730;-73
2022/10/31 05:03:28;;;;;;;12.63;8.20;;;;;;;8.73;58.95;102042.00;5019220;28;20119;-72
2022/10/31 05:05:53;;;;;;;12.32;7.30;;;;;;;8.74;58.79;102044.59;5017741;28;20029;-71
2022/10/31 05:08:19;;;;;;;11.90;7.10;;;;;;;8.72;58.80;102041.13;5005543;28;20506;-73
2022/10/31 05:10:48;;;;;;;12.45;7.57;;;;;;;8.76;58.80;102044.53;5013831;28;20148;-70
2022/10/31 05:13:15;;;;;;;15.65;8.23;;;;;;;8.80;59.02;102043.63;5004571;28;20112;-73
2022/10/31 05:15:59;;;;;;;12.35;7.53;;;;;;;8.82;58.92;102035.78;5015328;28;20068;-71
2022/10/31 05:18:43;;;;;;;12.05;7.40;;;;;;;8.73;58.51;102035.03;5023621;28;20448;-72
2022/10/31 05:21:47;;;;;;;10.38;6.93;;;;;;;8.65;58.83;102035.97;4991363;28;20256;-72
2022/10/31 05:24:12;;;;;;;12.05;7.28;;;;;;;8.60;58.61;102038.66;4977001;28;20042;-70
2022/10/31 05:26:43;;;;;;;9.85;6.53;;;;;;;8.56;58.28;102045.66;4992632;28;20456;-73
2022/10/31 05:29:08;;;;;;;10.27;6.80;;;;;;;8.44;58.26;102044.94;5025330;28;20048;-76
2022/10/31 05:31:35;;;;;;;8.80;6.38;;;;;;;8.36;58.51;102051.13;5007561;28;20118;-71
2022/10/31 05:34:01;;;;;;;10.32;6.68;;;;;;;8.32;58.51;102051.16;5017109;28;20044;-71
2022/10/31 05:36:45;;;;;;;9.23;6.03;;;;;;;8.30;58.43;102045.97;5023745;28;20102;-71
2022/10/31 05:39:15;;;;;;;8.65;6.00;;;;;;;8.28;58.06;102044.25;4999648;28;20079;-74
2022/10/31 05:41:45;;;;;;;11.95;6.95;;;;;;;8.20;58.33;102040.88;4998746;28;20074;-74
2022/10/31 05:44:18;;;;;;;9.00;5.72;;;;;;;8.20;58.39;102043.47;4999305;28;20045;-70
2022/10/31 05:46:55;;;;;;;9.93;5.90;;;;;;;8.21;58.35;102051.28;5022624;28;20029;-74
2022/10/31 05:49:39;;;;;;;8.85;5.00;;;;;;;8.10;58.08;102050.53;5013823;28;20047;-72
2022/10/31 05:52:23;;;;;;;12.43;7.00;;;;;;;8.05;58.52;102048.00;5025549;28;20625;-73
2022/10/31 05:54:55;;;;;;;12.13;6.80;;;;;;;8.01;58.77;102050.66;5004830;28;20033;-71
2022/10/31 05:57:20;;;;;;;9.50;6.47;;;;;;;8.02;58.73;102048.00;5006818;28;20045;-74
2022/10/31 05:59:46;;;;;;;10.82;5.45;;;;;;;8.02;58.42;102047.16;5021933;28;20577;-72
2022/10/31 06:02:11;;;;;;;10.45;6.00;;;;;;;8.04;58.57;102051.47;5011609;28;20557;-73
2022/10/31 06:05:14;;;;;;;13.40;6.75;;;;;;;8.05;58.43;102052.34;5013196;28;20581;-72
2022/10/31 06:07:41;;;;;;;9.27;5.32;;;;;;;8.02;58.39;102052.34;5004253;28;20112;-71
2022/10/31 06:10:08;;;;;;;14.27;7.03;;;;;;;7.93;58.83;102048.09;5005053;28;20491;-72
2022/10/31 06:12:37;;;;;;;10.32;6.18;;;;;;;7.92;58.72;102060.25;4996699;28;20402;-74
2022/10/31 06:15:20;;;;;;;10.77;6.38;;;;;;;7.96;58.80;102055.91;5022295;28;20029;-74
2022/10/31 06:17:46;;;;;;;14.57;5.90;;;;;;;7.94;58.60;102053.31;5002705;28;20495;-73
2022/10/31 06:20:22;;;;;;;11.30;6.93;;;;;;;8.00;58.50;102054.13;4998083;28;20128;-73
2022/10/31 06:22:56;;;;;;;7.60;5.57;;;;;;;7.99;58.58;102055.84;5009754;28;20051;-74
2022/10/31 06:25:23;;;;;;;9.52;6.35;;;;;;;8.02;58.69;102063.63;5005115;28;20061;-73
2022/10/31 06:27:49;;;;;;;9.88;6.03;;;;;;;8.00;58.44;102057.56;4991622;28;20041;-73
2022/10/31 06:30:15;;;;;;;8.85;5.82;;;;;;;8.02;58.50;102055.81;5003353;28;20029;-73
2022/10/31 06:32:41;;;;;;;9.98;5.95;;;;;;;8.05;58.93;102061.00;5008342;28;20129;-73
2022/10/31 06:35:09;;;;;;;7.93;5.00;;;;;;;8.07;58.85;102061.84;4996900;28;20033;-72
2022/10/31 06:37:36;;;;;;;7.22;4.53;;;;;;;8.11;59.04;102071.38;5008509;28;20144;-71
2022/10/31 06:40:18;;;;;;;6.03;4.75;;;;;;;8.14;58.98;102068.72;5008090;28;20611;-72
2022/10/31 06:43:06;;;;;;;7.10;6.00;;;;;;;8.18;58.98;102076.50;5023820;28;20040;-71
2022/10/31 06:45:32;;;;;;;15.25;6.05;;;;;;;8.13;59.15;102082.59;4996554;28;20025;-74
2022/10/31 06:48:20;;;;;;;12.63;6.00;;;;;;;8.17;59.30;102083.44;5002625;28;20067;-73
2022/10/31 06:51:05;;;;;;;17.08;6.40;;;;;;;8.21;59.44;102086.91;5023197;28;20752;-77
2022/10/31 06:53:31;;;;;;;5.60;4.60;;;;;;;8.33;59.29;102089.34;5009597;28;20148;-73
2022/10/31 06:55:57;;;;;;;7.95;5.85;;;;;;;8.46;59.41;102093.53;5002693;28;20388;-74
2022/10/31 06:58:23;;;;;;;7.07;5.43;;;;;;;8.59;59.40;102090.81;4993644;28;20037;-73
2022/10/31 07:00:50;;;;;;;7.22;5.25;;;;;;;8.67;59.34;102088.94;5010063;28;20053;-72
2022/10/31 07:03:16;;;;;;;7.30;5.88;;;;;;;8.76;59.22;102089.75;5014813;28;20510;-77
2022/10/31 07:05:42;;;;;;;8.82;5.65;;;;;;;8.82;59.02;102093.13;5012455;28;20123;-72
2022/10/31 07:08:12;;;;;;;9.73;5.38;;;;;;;8.89;59.19;102097.38;4991754;28;20040;-73
2022/10/31 07:10:39;;;;;;;16.88;6.53;;;;;;;8.97;58.67;102098.16;5020223;28;20033;-72
2022/10/31 07:13:06;;;;;;;11.35;7.72;;;;;;;9.00;58.70;102097.25;5014120;28;20041;-73
2022/10/31 07:15:37;;;;;;;11.70;7.53;;;;;;;9.09;58.88;102102.31;5012560;28;20029;-71
2022/10/31 07:18:04;;;;;;;13.60;7.80;;;;;;;9.28;58.91;102095.13;4990635;28;20410;-73
2022/10/31 07:20:31;;;;;;;12.10;8.02;;;;;;;9.33;58.51;102101.97;5005019;28;20033;-72
2022/10/31 07:22:57;;;;;;;14.45;8.50;;;;;;;9.38;58.67;102097.53;5018319;28;20053;-74
2022/10/31 07:25:24;;;;;;;15.60;8.90;;;;;;;9.50;58.33;102093.00;5013480;28;20125;-71
2022/10/31 07:28:26;;;;;;;23.75;7.97;;;;;;;9.55;58.34;102097.28;5009430;28;20041;-76
2022/10/31 07:30:54;;;;;;;14.38;8.73;;;;;;;9.57;57.94;102087.69;5005790;28;20037;-74
2022/10/31 07:33:21;;;;;;;18.00;9.02;;;;;;;9.67;58.33;102093.59;5020464;28;20046;-76
2022/10/31 07:36:07;;;;;;;17.77;8.75;;;;;;;9.68;58.15;102094.44;4999137;28;20127;-76
2022/10/31 07:38:33;;;;;;;15.63;9.02;;;;;;;9.95;58.40;102090.56;5010930;28;20090;-73
2022/10/31 07:41:02;;;;;;;17.42;9.88;;;;;;;10.41;57.94;102090.56;5009767;28;20394;-74
2022/10/31 07:43:30;;;;;;;17.15;8.70;;;;;;;10.82;56.62;102088.00;5015033;28;20683;-74
2022/10/31 07:46:16;;;;;;;17.83;10.15;;;;;;;11.14;55.66;102096.88;5023822;28;20297;-74
2022/10/31 07:49:20;;;;;;;15.77;9.30;;;;;;;11.75;54.75;102098.00;4988684;28;20081;-75
2022/10/31 07:52:04;;;;;;;12.00;8.25;;;;;;;12.29;53.61;102100.09;4981841;28;20057;-74
2022/10/31 07:55:03;;;;;;;15.05;8.57;;;;;;;12.86;52.08;102095.84;4981454;28;20554;-72
2022/10/31 07:57:30;;;;;;;10.45;8.05;;;;;;;13.57;50.53;102095.41;5028702;28;20045;-74
2022/10/31 07:59:57;;;;;;;10.10;7.05;;;;;;;14.21;47.13;102100.19;5017471;28;21262;-72
2022/10/31 08:02:22;;;;;;;10.15;7.50;;;;;;;14.39;48.12;102090.78;5026908;28;20124;-75
2022/10/31 08:04:48;;;;;;;11.43;7.00;;;;;;;14.73;47.07;102093.91;5028061;28;20052;-75
2022/10/31 08:07:37;;;;;;;14.57;7.40;;;;;;;15.31;45.18;102084.66;5011753;28;20037;-74
2022/10/31 08:10:05;;;;;;;17.58;8.38;;;;;;;16.02;43.85;102086.94;5010866;28;20033;-75
2022/10/31 08:12:31;;;;;;;9.65;6.90;;;;;;;16.52;41.95;102086.47;5001116;28;20140;-76
2022/10/31 08:14:56;;;;;;;21.40;6.93;;;;;;;16.32;40.36;102077.69;4997019;28;20029;-76
2022/10/31 08:17:22;;;;;;;8.57;5.78;;;;;;;16.81;42.18;102080.72;5011081;28;20497;-73
2022/10/31 08:19:54;;;;;;;9.00;5.80;;;;;;;17.20;40.45;102081.50;5008853;28;20298;-73
2022/10/31 08:22:24;;;;;;;8.77;5.80;;;;;;;17.73;40.00;102090.34;5009643;28;20045;-72
2022/10/31 08:24:51;;;;;;;7.82;6.05;;;;;;;18.16;39.12;102088.09;5013056;28;20075;-72
2022/10/31 08:27:17;;;;;;;9.18;5.53;;;;;;;18.26;37.01;102089.38;4997717;28;20037;-74
2022/10/31 08:29:43;;;;;;;8.32;5.95;;;;;;;17.94;37.46;102096.31;5010282;28;20036;-74
2022/10/31 08:32:09;;;;;;;9.10;5.68;;;;;;;17.85;36.88;102095.03;5009526;28;20056;-75
2022/10/31 08:34:54;;;;;;;7.43;5.15;;;;;;;17.89;38.41;102101.00;5026653;28;20075;-75
2022/10/31 08:37:28;;;;;;;12.07;6.10;;;;;;;18.17;36.15;102095.97;5025939;28;20045;-71
2022/10/31 08:39:54;;;;;;;10.13;6.20;;;;;;;18.31;36.44;102089.97;5026478;28;20025;-71
2022/10/31 08:42:20;;;;;;;7.93;5.88;;;;;;;18.43;36.97;102097.25;5016725;28;20053;-69
2022/10/31 08:44:46;;;;;;;12.48;6.63;;;;;;;17.99;37.39;102097.78;5000877;28;20305;-71
2022/10/31 08:47:12;;;;;;;10.00;5.47;;;;;;;17.54;36.75;102096.59;4999954;28;20095;-69
2022/10/31 08:49:38;;;;;;;11.80;6.70;;;;;;;16.83;40.09;102092.06;4996138;28;20120;-69
2022/10/31 08:52:03;;;;;;;7.53;6.57;;;;;;;16.96;39.65;102089.69;5024765;28;20496;-69
2022/10/31 08:54:33;;;;;;;9.57;6.07;;;;;;;16.86;39.35;102084.94;5009581;28;20100;-69
2022/10/31 08:57:21;;;;;;;8.93;6.40;;;;;;;16.28;40.94;102089.28;5020529;28;20059;-68
2022/10/31 08:59:47;;;;;;;10.40;7.05;;;;;;;16.80;40.33;102089.56;4997159;28;20029;-67
2022/10/31 09:02:12;;;;;;;8.73;5.82;;;;;;;17.38;39.46;102087.66;5022603;28;20045;-67
2022/10/31 09:04:38;;;;;;;9.00;6.78;;;;;;;17.54;37.85;102082.50;5015460;28;20031;-67
2022/10/31 09:07:04;;;;;;;11.95;7.97;;;;;;;17.31;39.20;102083.63;5025280;28;20103;-67
2022/10/31 09:09:29;;;;;;;14.02;7.00;;;;;;;17.38;39.31;102079.72;5010898;28;20064;-67
2022/10/31 09:11:56;;;;;;;10.73;6.85;;;;;;;17.45;38.90;102081.16;5016559;28;20276;-67
2022/10/31 09:14:40;;;;;;;8.70;6.35;;;;;;;17.86;39.58;102091.44;5023058;28;20048;-68
2022/10/31 09:17:29;;;;;;;8.05;6.32;;;;;;;18.01;37.38;102082.69;5026341;28;20042;-66
2022/10/31 09:20:17;;;;;;;8.40;6.32;;;;;;;17.67;38.23;102082.72;5017904;28;20056;-67
2022/10/31 09:22:42;;;;;;;9.30;6.55;;;;;;;17.92;37.67;102083.19;5032776;28;20057;-66
2022/10/31 09:25:08;;;;;;;8.23;6.88;;;;;;;18.05;38.10;102084.25;5014404;28;20118;-68
2022/10/31 09:27:34;;;;;;;8.15;6.10;;;;;;;18.34;37.25;102079.22;5016662;28;20070;-67
2022/10/31 09:30:01;;;;;;;8.05;6.22;;;;;;;17.45;38.75;102083.81;5005586;28;20041;-67
2022/10/31 09:32:26;;;;;;;9.05;7.07;;;;;;;17.70;38.75;102079.94;5016975;28;20037;-67
2022/10/31 09:34:51;;;;;;;10.27;7.90;;;;;;;17.38;38.17;102077.09;5009309;28;20166;-67
2022/10/31 09:37:20;;;;;;;10.38;6.70;;;;;;;17.56;38.95;102097.38;5012685;28;20037;-66
2022/10/31 09:39:45;;;;;;;11.57;7.30;;;;;;;17.39;39.08;102084.09;5009538;28;20410;-66
2022/10/31 09:42:54;;;;;;;9.95;6.95;;;;;;;17.30;39.64;102093.34;5009902;28;20041;-67
2022/10/31 09:45:35;;;;;;;10.05;6.65;;;;;;;16.91;40.56;102089.06;5016652;28;20079;-67
2022/10/31 09:48:28;;;;;;;11.27;7.25;;;;;;;16.95;40.76;102089.75;5010021;28;20459;-67
2022/10/31 09:51:17;;;;;;;12.40;8.30;;;;;;;16.88;40.79;102091.84;5026666;28;20041;-66
2022/10/31 09:54:14;;;;;;;10.93;7.68;;;;;;;17.28;39.79;102095.19;4998225;28;20045;-68
2022/10/31 09:56:40;;;;;;;16.13;10.77;;;;;;;17.71;39.94;102093.06;5007444;28;20040;-66
2022/10/31 09:59:19;;;;;;;15.95;7.75;;;;;;;17.92;38.79;102093.75;5027828;28;20045;-67
2022/10/31 10:01:50;;;;;;;10.23;7.55;;;;;;;17.92;39.28;102093.75;4992727;28;20029;-67
2022/10/31 10:04:31;;;;;;;10.73;7.70;;;;;;;17.63;37.99;102085.53;5024839;28;20127;-67
2022/10/31 10:07:19;;;;;;;9.73;6.63;;;;;;;17.94;39.50;102083.97;5002988;28;20041;-67
2022/10/31 10:09:44;;;;;;;8.68;7.22;;;;;;;17.80;38.59;102089.09;5022954;28;20044;-67
2022/10/31 10:13:02;;;;;;;11.95;6.95;;;;;;;17.77;39.27;102091.91;4996688;28;20180;-68
2022/10/31 10:15:30;;;;;;;13.27;7.43;;;;;;;17.83;40.38;102075.75;4992790;28;20507;-67
2022/10/31 10:18:00;;;;;;;10.70;6.88;;;;;;;18.16;37.79;102082.81;5022331;28;20157;-67
2022/10/31 10:20:36;;;;;;;10.60;7.13;;;;;;;18.29;37.98;102077.75;5005123;28;20045;-67
2022/10/31 10:23:31;;;;;;;8.68;6.60;;;;;;;18.27;38.50;102077.81;5005541;28;20457;-66
2022/10/31 10:26:15;;;;;;;10.60;6.55;;;;;;;19.08;37.25;102073.38;5004329;28;20044;-69
2022/10/31 10:28:44;;;;;;;7.78;5.88;;;;;;;19.30;35.53;102074.75;5022508;28;20430;-67
2022/10/31 10:31:18;;;;;;;9.00;5.60;;;;;;;19.19;35.75;102064.81;5023778;28;20044;-68
2022/10/31 10:34:05;;;;;;;9.63;6.32;;;;;;;18.84;37.04;102067.63;5018971;28;20051;-68
2022/10/31 10:36:40;;;;;;;11.48;6.65;;;;;;;18.70;37.72;102072.84;5023861;28;20048;-68
2022/10/31 10:39:45;;;;;;;11.38;7.47;;;;;;;18.38;38.37;102074.59;4996521;28;20056;-68
2022/10/31 10:47:51;;;;;;;7.90;5.50;;;;;;;17.29;39.90;102075.78;5019731;28;20041;-69
2022/10/31 10:50:19;;;;;;;7.18;6.03;;;;;;;17.42;40.06;102070.72;5020917;28;20045;-68
2022/10/31 10:53:21;;;;;;;8.52;6.15;;;;;;;17.25;40.17;102076.88;5006589;28;20075;-66
2022/10/31 10:55:58;;;;;;;6.88;5.13;;;;;;;17.16;40.83;102070.25;5000938;28;20029;-68
2022/10/31 10:58:24;;;;;;;8.50;6.00;;;;;;;16.79;41.65;102072.00;5023432;28;20584;-68
2022/10/31 11:00:52;;;;;;;9.20;6.43;;;;;;;16.61;41.71;102063.13;5002729;28;20029;-68
2022/10/31 11:03:18;;;;;;;9.65;5.80;;;;;;;16.71;42.50;102068.88;5022186;28;20057;-66
2022/10/31 11:06:01;;;;;;;9.13;6.03;;;;;;;16.99;41.47;102062.28;5004931;28;20449;-67
2022/10/31 11:08:35;;;;;;;14.20;6.57;;;;;;;16.98;42.06;102060.59;5021778;28;20191;-66
2022/10/31 11:11:27;;;;;;;6.68;4.95;;;;;;;17.41;41.02;102058.44;5007091;28;20034;-67
2022/10/31 11:14:11;;;;;;;14.05;6.32;;;;;;;17.94;39.54;102065.44;5003227;28;20056;-66
2022/10/31 11:16:41;;;;;;;9.25;5.47;;;;;;;17.71;40.32;102049.91;5018914;28;20032;-67
2022/10/31 11:19:20;;;;;;;6.22;5.05;;;;;;;17.67;40.32;102048.34;5021787;28;20638;-67
2022/10/31 11:21:46;;;;;;;7.88;5.25;;;;;;;17.59;39.38;102044.31;5003988;28;20029;-67
2022/10/31 11:24:21;;;;;;;7.80;5.13;;;;;;;17.42;39.82;102039.00;5023964;28;20355;-67
2022/10/31 11:26:50;;;;;;;7.47;5.00;;;;;;;17.06;41.38;102047.84;5006258;28;20041;-68
2022/10/31 11:29:20;;;;;;;9.13;5.60;;;;;;;16.69;42.26;102043.44;5020794;28;20041;-67
2022/10/31 11:31:48;;;;;;;10.18;5.53;;;;;;;16.63;41.78;102034.03;5001618;28;20039;-67
2022/10/31 11:34:27;;;;;;;9.23;5.13;;;;;;;16.73;42.04;102029.16;5017369;28;20049;-66
2022/10/31 11:36:52;;;;;;;10.38;5.15;;;;;;;16.56;41.46;102027.34;5022128;28;20087;-67
2022/10/31 11:39:23;;;;;;;7.28;5.00;;;;;;;16.50;42.31;102030.28;5024481;28;20426;-66
2022/10/31 11:41:51;;;;;;;11.23;4.90;;;;;;;16.50;42.11;102033.75;5020992;28;20033;-66
2022/10/31 11:44:25;;;;;;;5.97;3.88;;;;;;;16.30;42.79;102032.03;5021939;28;20056;-64
2022/10/31 11:46:58;;;;;;;7.93;4.20;;;;;;;16.57;43.11;102032.53;5021341;28;20037;-66
2022/10/31 11:49:35;;;;;;;6.10;4.03;;;;;;;16.29;43.07;102035.63;5020662;28;20438;-67
2022/10/31 11:52:26;;;;;;;8.18;4.45;;;;;;;16.41;42.86;102032.41;5012238;28;20033;-66